Pine Canyon, Utah
Current Conditions -  °F | °C
As of 9:53 AM on Saturday 25 Oct 2014 (Local Time) from KSLC Reporting Station
Clear Clear  
Wind Chill: 63°   Ceiling: Unl
Heat Index: 63°   Visibility: 10mi
Dew Point: 33°   Wind: 9mph
Humidity: 33%   Direction: 130°SE
Pressure: 30.08"   Gusts: NA
Location:  40.5393°N, 112.353°W
Report Text: KSLC 251553Z 13008KT 10SM CLR 17/01 A3008 RMK AO2 SLP152 T01720006
Loading
Personal Weather Stations






























Interactive Weather Map New forecast layout! Learn more

10-Day Weather Forecast

Advertisements
Track Severe Weather on mobile